Time;durP1;ratioP1;P1;durP2;ratioP2;P2;SDS_P1;SDS_P2;PMS_P1;PMS_P2;Temp;Humidity;BMP_temperature;BMP_pressure;BME280_temperature;BME280_humidity;BME280_pressure;Samples;Min_cycle;Max_cycle;Signal;HPM_P1;HPM_P2
2021/05/06 00:00:20;;;;;;;13.25;7.93;;;6.40;86.90;;;;;;5133604;28;20016;-80
2021/05/06 00:30:08;;;;;;;13.98;8.88;;;6.30;88.30;;;;;;5099195;28;20038;-80
2021/05/06 00:32:35;;;;;;;17.08;10.32;;;6.30;88.00;;;;;;5116765;28;20111;-80
2021/05/06 00:35:03;;;;;;;13.38;9.43;;;6.30;88.60;;;;;;5103781;28;20028;-81
2021/05/06 00:37:29;;;;;;;13.38;9.60;;;6.30;88.90;;;;;;5109128;28;20017;-80
2021/05/06 00:40:05;;;;;;;13.98;9.20;;;6.30;88.40;;;;;;5112289;28;20106;-80
2021/05/06 00:42:38;;;;;;;16.73;11.32;;;6.30;88.50;;;;;;5112459;28;20177;-81
2021/05/06 01:01:20;;;;;;;15.43;11.07;;;6.40;89.30;;;;;;5096472;28;20068;-81
2021/05/06 01:04:12;;;;;;;16.30;11.70;;;6.40;89.10;;;;;;5097800;28;20028;-81
2021/05/06 01:06:56;;;;;;;16.00;12.02;;;6.40;88.60;;;;;;5095384;28;20040;-81
2021/05/06 01:09:26;;;;;;;14.43;11.48;;;6.30;88.90;;;;;;5095848;28;20031;-81
2021/05/06 01:14:20;;;;;;;15.68;10.57;;;6.30;88.90;;;;;;5109759;28;20024;-80
2021/05/06 01:16:46;;;;;;;16.27;11.32;;;6.30;88.80;;;;;;5097192;28;20020;-82
2021/05/06 01:19:11;;;;;;;14.57;11.30;;;6.30;89.00;;;;;;5094910;28;20028;-81
2021/05/06 01:21:37;;;;;;;13.73;11.18;;;6.30;88.60;;;;;;5095367;28;20162;-80
2021/05/06 01:24:03;;;;;;;19.00;12.13;;;6.30;88.80;;;;;;5094886;28;20024;-81
2021/05/06 01:26:35;;;;;;;16.42;11.15;;;6.30;88.60;;;;;;5095540;28;20059;-81
2021/05/06 01:29:06;;;;;;;14.25;11.18;;;6.30;88.70;;;;;;5096752;28;20024;-81
2021/05/06 01:31:35;;;;;;;14.95;11.13;;;6.30;89.40;;;;;;5096484;28;20024;-79
2021/05/06 01:36:33;;;;;;;16.70;11.73;;;6.30;89.30;;;;;;5097993;28;20385;-80
2021/05/06 02:00:06;;;;;;;15.25;12.40;;;6.10;89.10;;;;;;5115343;28;20024;-80
2021/05/06 02:02:32;;;;;;;16.58;12.45;;;6.10;89.90;;;;;;5105901;28;20020;-80
2021/05/06 02:05:01;;;;;;;18.95;13.40;;;6.10;90.00;;;;;;5097918;28;20033;-80
2021/05/06 02:07:27;;;;;;;18.05;13.73;;;6.10;89.80;;;;;;5098090;28;20031;-80
2021/05/06 02:09:53;;;;;;;15.05;11.82;;;6.10;90.10;;;;;;5099263;28;20012;-79
2021/05/06 02:12:19;;;;;;;13.43;10.32;;;6.10;90.20;;;;;;5098661;28;20491;-78
2021/05/06 02:14:56;;;;;;;16.23;12.82;;;6.10;89.80;;;;;;5100835;28;20020;-80
2021/05/06 02:17:21;;;;;;;16.33;12.20;;;6.00;90.00;;;;;;5099545;28;20020;-78
2021/05/06 02:19:48;;;;;;;16.08;11.85;;;6.00;90.00;;;;;;5098817;28;20473;-78
2021/05/06 02:22:16;;;;;;;15.35;11.80;;;6.00;90.10;;;;;;5094946;28;20024;-78
2021/05/06 02:24:42;;;;;;;14.65;10.50;;;6.00;89.80;;;;;;5094948;28;20031;-79
2021/05/06 02:27:08;;;;;;;15.77;11.27;;;6.00;90.00;;;;;;5106027;28;20060;-78
2021/05/06 02:29:34;;;;;;;15.23;11.82;;;6.00;90.10;;;;;;5095500;28;20096;-80
2021/05/06 02:32:00;;;;;;;14.65;11.10;;;6.10;90.00;;;;;;5094489;28;20024;-79
2021/05/06 02:34:25;;;;;;;14.43;10.35;;;6.00;89.80;;;;;;5093971;28;20341;-78
2021/05/06 02:36:51;;;;;;;13.35;10.85;;;6.10;89.40;;;;;;5094014;28;20020;-79
2021/05/06 02:39:16;;;;;;;15.40;11.57;;;6.00;89.60;;;;;;5095282;28;20031;-79
2021/05/06 02:41:42;;;;;;;16.35;11.80;;;6.10;89.90;;;;;;5095298;28;20442;-79
2021/05/06 02:44:08;;;;;;;15.00;11.65;;;6.00;90.00;;;;;;5093762;28;20020;-80
2021/05/06 02:46:33;;;;;;;14.77;11.80;;;6.00;89.70;;;;;;5094517;28;20497;-78
2021/05/06 02:48:59;;;;;;;15.50;10.80;;;6.00;90.00;;;;;;5093512;28;20022;-79
2021/05/06 02:51:31;;;;;;;14.98;11.20;;;6.00;89.80;;;;;;5094014;28;20035;-80
2021/05/06 02:53:56;;;;;;;17.50;13.57;;;6.00;89.90;;;;;;5095311;28;20016;-79
2021/05/06 03:04:02;;;;;;;20.63;13.02;;;6.00;90.30;;;;;;5106323;28;20169;-78
2021/05/06 03:06:30;;;;;;;;;;;6.00;90.40;;;;;;5094502;28;20069;-79
2021/05/06 03:09:05;;;;;;;17.42;12.82;;;5.90;90.30;;;;;;5094210;28;19904;-78
2021/05/06 03:11:43;;;;;;;19.05;13.10;;;5.80;90.40;;;;;;5094041;28;20079;-77
2021/05/06 03:14:28;;;;;;;18.00;13.77;;;5.80;90.50;;;;;;5094096;28;20377;-78
2021/05/06 03:22:43;;;;;;;19.05;13.77;;;5.70;90.70;;;;;;5094312;28;20500;-79
2021/05/06 03:25:15;;;;;;;16.02;12.52;;;5.70;90.80;;;;;;5093792;28;20141;-79
2021/05/06 04:18:11;;;;;;;23.77;19.05;;;5.20;91.30;;;;;;5108733;28;20036;-78
2021/05/06 04:26:08;;;;;;;26.48;20.20;;;5.20;91.10;;;;;;5099836;28;20396;-79
2021/05/06 04:39:12;;;;;;;32.08;22.27;;;5.30;91.40;;;;;;5099714;28;20434;-79
2021/05/06 04:45:18;;;;;;;31.60;23.25;;;5.30;91.50;;;;;;5100530;28;20039;-79
2021/05/06 04:55:16;;;;;;;28.20;22.77;;;5.50;91.70;;;;;;5110434;28;20114;-76
2021/05/06 05:05:35;;;;;;;30.77;23.13;;;5.60;91.50;;;;;;5099326;28;20458;-79
2021/05/06 05:08:09;;;;;;;32.05;23.48;;;5.60;91.50;;;;;;5098564;28;20028;-78
2021/05/06 05:24:00;;;;;;;33.28;24.98;;;5.70;91.50;;;;;;5099850;28;20031;-78
2021/05/06 05:26:26;;;;;;;33.35;24.85;;;5.70;91.50;;;;;;5097220;28;20039;-78
2021/05/06 05:28:52;;;;;;;34.03;22.83;;;5.80;91.50;;;;;;5079356;28;20024;-78
2021/05/06 05:31:17;;;;;;;31.30;21.38;;;5.80;91.40;;;;;;5081570;28;20025;-75
2021/05/06 05:33:50;;;;;;;29.02;22.08;;;5.80;91.30;;;;;;5081053;28;20028;-78
2021/05/06 05:36:20;;;;;;;31.67;23.60;;;5.80;91.20;;;;;;5084817;28;20020;-78
2021/05/06 05:54:50;;;;;;;43.72;30.90;;;6.20;91.30;;;;;;5082410;28;20566;-78
2021/05/06 05:57:16;;;;;;;33.20;24.88;;;6.20;91.30;;;;;;5076360;28;20024;-78
2021/05/06 05:59:42;;;;;;;42.78;31.13;;;6.20;91.20;;;;;;5075834;28;20401;-79
2021/05/06 06:02:08;;;;;;;39.25;27.48;;;6.30;91.40;;;;;;5075984;28;20021;-78
2021/05/06 06:04:34;;;;;;;35.58;26.15;;;6.40;91.20;;;;;;5074843;28;20112;-79
2021/05/06 06:06:59;;;;;;;37.30;27.85;;;6.40;91.00;;;;;;5077409;28;20109;-77
2021/05/06 06:09:25;;;;;;;41.17;28.25;;;6.50;91.00;;;;;;5085686;28;20025;-77
2021/05/06 06:11:50;;;;;;;38.17;27.42;;;6.50;91.00;;;;;;5077705;28;20029;-78
2021/05/06 06:14:44;;;;;;;36.78;26.27;;;6.50;91.00;;;;;;5076857;28;20031;-77
2021/05/06 06:17:02;;;;;;;38.30;28.08;;;6.60;90.90;;;;;;5080073;28;20040;-79
2021/05/06 06:19:35;;;;;;;40.95;31.88;;;6.60;90.70;;;;;;5078301;28;20021;-79
2021/05/06 06:22:08;;;;;;;41.22;29.50;;;6.60;90.50;;;;;;5076633;28;20082;-78
2021/05/06 06:24:33;;;;;;;38.13;27.27;;;6.60;90.70;;;;;;5077584;28;20031;-79
2021/05/06 06:27:02;;;;;;;43.85;30.90;;;6.60;90.70;;;;;;5075391;28;20096;-79
2021/05/06 06:29:33;;;;;;;38.40;28.50;;;6.70;91.00;;;;;;5075205;28;20024;-78
2021/05/06 06:32:01;;;;;;;34.08;25.63;;;6.70;91.00;;;;;;5076025;28;20029;-79
2021/05/06 06:34:27;;;;;;;39.97;31.27;;;6.80;90.80;;;;;;5079235;28;20063;-77
2021/05/06 06:36:57;;;;;;;37.22;29.08;;;6.80;90.30;;;;;;5075274;28;20458;-78
2021/05/06 06:39:27;;;;;;;38.70;28.42;;;6.70;90.40;;;;;;5075339;28;20017;-78
2021/05/06 06:41:53;;;;;;;;;;;6.80;90.60;;;;;;5079608;28;20017;-79
2021/05/06 06:44:22;;;;;;;36.22;27.55;;;6.80;90.60;;;;;;5079106;28;20013;-78
2021/05/06 06:47:00;;;;;;;35.03;27.47;;;6.90;90.60;;;;;;5073740;28;20031;-79
2021/05/06 06:49:42;;;;;;;42.90;30.83;;;6.90;90.40;;;;;;5076029;28;20055;-78
2021/05/06 06:52:10;;;;;;;37.28;29.15;;;6.90;90.40;;;;;;5072878;28;20504;-79
2021/05/06 06:54:36;;;;;;;36.80;29.20;;;7.00;90.40;;;;;;5073709;28;20019;-80
2021/05/06 06:57:08;;;;;;;39.92;29.02;;;7.00;90.20;;;;;;5072066;28;20119;-79
2021/05/06 06:59:33;;;;;;;36.42;27.67;;;7.10;90.40;;;;;;5072539;28;20025;-80
2021/05/06 07:01:59;;;;;;;37.15;28.70;;;7.10;90.00;;;;;;5067169;28;20025;-80
2021/05/06 07:04:25;;;;;;;35.08;26.10;;;7.30;90.10;;;;;;5072812;28;20032;-79
2021/05/06 07:06:50;;;;;;;34.22;26.42;;;7.50;89.40;;;;;;5072575;28;20032;-78
2021/05/06 07:09:16;;;;;;;30.02;24.33;;;7.60;89.50;;;;;;5074255;28;20017;-79
2021/05/06 07:11:42;;;;;;;28.30;22.35;;;7.80;89.00;;;;;;5073688;28;20545;-80
2021/05/06 07:14:07;;;;;;;27.42;22.83;;;7.90;87.80;;;;;;5074668;28;20020;-80
2021/05/06 07:16:33;;;;;;;27.17;21.65;;;8.00;87.30;;;;;;5081129;28;20443;-80
2021/05/06 07:18:59;;;;;;;21.73;17.90;;;7.90;87.30;;;;;;5079475;28;20025;-79
2021/05/06 07:21:26;;;;;;;26.52;21.35;;;8.10;87.00;;;;;;5083097;28;20524;-78
2021/05/06 07:23:56;;;;;;;28.38;21.80;;;8.20;87.10;;;;;;5072781;28;20463;-78
2021/05/06 07:26:24;;;;;;;22.60;18.97;;;8.30;86.70;;;;;;5072489;28;20482;-79
2021/05/06 07:28:50;;;;;;;27.50;21.33;;;8.50;86.10;;;;;;5092492;28;20282;-78
2021/05/06 07:31:16;;;;;;;29.45;22.45;;;8.60;84.10;;;;;;5095691;28;20020;-79
2021/05/06 07:33:43;;;;;;;22.77;19.55;;;8.70;84.10;;;;;;5104285;28;20044;-78
2021/05/06 07:36:13;;;;;;;23.30;18.85;;;8.80;83.40;;;;;;5107776;28;20092;-79
2021/05/06 07:38:39;;;;;;;27.67;21.02;;;9.00;83.00;;;;;;5109344;28;20016;-78
2021/05/06 07:41:05;;;;;;;22.30;19.23;;;9.10;82.30;;;;;;5112063;28;20012;-80
2021/05/06 07:43:31;;;;;;;21.33;17.45;;;9.10;82.00;;;;;;5113913;28;20060;-78
2021/05/06 07:45:58;;;;;;;15.90;12.55;;;9.40;81.80;;;;;;5114547;28;20020;-80
2021/05/06 07:48:24;;;;;;;18.40;14.07;;;9.70;81.10;;;;;;5112475;28;20028;-79
2021/05/06 07:50:50;;;;;;;18.00;15.45;;;10.00;79.30;;;;;;5101858;28;20129;-79
2021/05/06 07:53:22;;;;;;;15.25;12.60;;;10.30;78.30;;;;;;5094573;28;20821;-80
2021/05/06 07:55:48;;;;;;;17.27;14.20;;;10.30;76.90;;;;;;5092772;28;20023;-79
2021/05/06 07:58:13;;;;;;;17.13;13.52;;;10.20;73.60;;;;;;5097546;28;20054;-80
2021/05/06 08:00:39;;;;;;;13.32;11.27;;;10.30;74.00;;;;;;5092922;28;20080;-79
2021/05/06 08:03:07;;;;;;;16.40;13.20;;;10.20;74.80;;;;;;5093140;28;20016;-79
2021/05/06 08:05:33;;;;;;;13.88;11.05;;;10.30;72.90;;;;;;5094238;28;20024;-80
2021/05/06 08:08:02;;;;;;;14.65;10.85;;;10.40;73.00;;;;;;5092929;28;20027;-81
2021/05/06 08:10:28;;;;;;;13.35;9.20;;;10.60;73.00;;;;;;5094633;28;20027;-79
2021/05/06 08:12:55;;;;;;;14.48;8.20;;;10.80;73.20;;;;;;5111188;28;20453;-79
2021/05/06 08:15:21;;;;;;;12.02;9.02;;;10.90;73.30;;;;;;5092291;28;20081;-80
2021/05/06 08:17:47;;;;;;;9.57;6.18;;;11.00;70.40;;;;;;5110312;28;20119;-79
2021/05/06 08:20:14;;;;;;;11.80;8.52;;;10.80;72.40;;;;;;5109893;28;20466;-80
2021/05/06 08:22:40;;;;;;;14.63;13.07;;;10.70;70.80;;;;;;5092706;28;20073;-79
2021/05/06 08:25:08;;;;;;;10.40;7.40;;;10.60;72.80;;;;;;5095649;28;20396;-80
2021/05/06 08:27:34;;;;;;;9.40;6.88;;;10.50;71.90;;;;;;5100549;28;20036;-79
2021/05/06 08:30:04;;;;;;;8.90;6.85;;;10.40;72.30;;;;;;5107901;28;20031;-80
2021/05/06 08:32:30;;;;;;;9.43;6.40;;;10.60;71.20;;;;;;5108151;28;20083;-79
2021/05/06 08:34:55;;;;;;;8.90;5.78;;;10.80;72.50;;;;;;5124907;28;20031;-80
2021/05/06 08:37:21;;;;;;;10.50;7.43;;;11.00;72.00;;;;;;5114024;28;20119;-80
2021/05/06 08:39:47;;;;;;;11.93;7.28;;;11.20;69.10;;;;;;5103151;28;20565;-80
2021/05/06 08:42:16;;;;;;;11.38;7.85;;;11.40;65.70;;;;;;5098767;28;20041;-80
2021/05/06 08:44:43;;;;;;;11.17;8.03;;;11.30;65.30;;;;;;5121695;28;20036;-84
2021/05/06 08:47:14;;;;;;;11.02;8.38;;;11.40;68.20;;;;;;5128547;28;20302;-80
2021/05/06 08:49:40;;;;;;;11.02;8.00;;;11.60;66.60;;;;;;5114290;28;20446;-82
2021/05/06 08:52:09;;;;;;;9.20;7.05;;;11.70;68.00;;;;;;5114298;28;20028;-82
2021/05/06 08:54:36;;;;;;;10.35;7.35;;;12.00;67.00;;;;;;5108500;28;20174;-79
2021/05/06 08:57:03;;;;;;;11.93;7.82;;;12.10;63.40;;;;;;5104157;28;20079;-78
2021/05/06 08:59:28;;;;;;;11.23;7.70;;;12.00;64.20;;;;;;5119089;28;20028;-78
2021/05/06 09:01:56;;;;;;;13.70;7.85;;;11.90;61.30;;;;;;5131488;28;20020;-78
2021/05/06 09:04:21;;;;;;;8.45;5.15;;;11.60;61.40;;;;;;5118660;28;20095;-80
2021/05/06 09:07:02;;;;;;;11.00;7.85;;;11.60;64.40;;;;;;5129768;28;20020;-81
2021/05/06 09:09:30;;;;;;;11.65;8.85;;;11.50;64.80;;;;;;5105571;28;20087;-79
2021/05/06 09:11:57;;;;;;;12.50;9.32;;;11.60;64.40;;;;;;5101310;28;20074;-82
2021/05/06 09:14:49;;;;;;;12.52;9.00;;;11.80;64.90;;;;;;5098208;28;20020;-82
2021/05/06 09:17:27;;;;;;;13.40;8.63;;;12.20;63.10;;;;;;5096774;28;20109;-82
2021/05/06 09:20:05;;;;;;;11.85;8.88;;;12.50;63.00;;;;;;5097820;28;20079;-81
2021/05/06 09:22:36;;;;;;;11.00;7.13;;;12.50;62.00;;;;;;5096887;28;20020;-81
2021/05/06 09:25:31;;;;;;;11.63;7.93;;;12.40;62.90;;;;;;5097432;28;20043;-82
2021/05/06 09:28:09;;;;;;;12.75;9.77;;;12.20;61.70;;;;;;5097865;28;20489;-81
2021/05/06 09:30:56;;;;;;;8.02;5.80;;;12.00;61.70;;;;;;5106696;28;20032;-82
2021/05/06 09:33:36;;;;;;;12.98;9.90;;;12.10;65.10;;;;;;5115185;28;20032;-81
2021/05/06 09:36:12;;;;;;;12.25;8.88;;;12.60;60.50;;;;;;5111113;28;20032;-82
2021/05/06 09:38:52;;;;;;;16.40;10.25;;;12.70;60.00;;;;;;5099218;28;20046;-82
2021/05/06 09:41:21;;;;;;;10.68;7.18;;;12.50;61.30;;;;;;5096784;28;20026;-83
2021/05/06 09:43:48;;;;;;;11.93;7.90;;;12.40;63.50;;;;;;5097723;28;20020;-83
2021/05/06 09:46:34;;;;;;;11.20;8.73;;;12.60;60.40;;;;;;5110668;28;20032;-81
2021/05/06 09:49:05;;;;;;;13.45;7.75;;;13.10;62.10;;;;;;5080098;28;20067;-83
2021/05/06 09:51:45;;;;;;;;;;;13.40;58.30;;;;;;5077251;28;20031;-80
2021/05/06 09:54:15;;;;;;;11.48;8.05;;;13.40;56.80;;;;;;5075083;28;19924;-80
2021/05/06 09:56:43;;;;;;;12.30;8.05;;;13.50;56.80;;;;;;5077169;28;20025;-83
2021/05/06 09:59:10;;;;;;;11.07;7.70;;;13.50;54.10;;;;;;5080224;28;20401;-83
2021/05/06 10:01:41;;;;;;;11.70;7.57;;;13.50;56.20;;;;;;5091197;28;20024;-82
2021/05/06 10:04:14;;;;;;;10.00;7.30;;;13.30;54.30;;;;;;5083357;28;20024;-82
2021/05/06 10:06:40;;;;;;;11.68;7.35;;;13.00;56.80;;;;;;5077502;28;20028;-83
2021/05/06 10:09:06;;;;;;;12.43;9.27;;;12.90;54.80;;;;;;5075087;28;20025;-82
2021/05/06 10:11:32;;;;;;;15.75;9.90;;;12.90;56.60;;;;;;5076098;28;20093;-82
2021/05/06 10:13:59;;;;;;;9.60;7.20;;;12.80;56.90;;;;;;5075471;28;20028;-81
2021/05/06 10:16:26;;;;;;;10.70;8.57;;;13.00;60.10;;;;;;5075574;28;20036;-83
2021/05/06 10:18:52;;;;;;;13.18;8.95;;;13.20;59.40;;;;;;5076861;28;20033;-82
2021/05/06 10:21:20;;;;;;;15.75;8.13;;;13.50;55.80;;;;;;5081921;28;20031;-80
2021/05/06 10:23:49;;;;;;;10.43;8.25;;;13.70;55.40;;;;;;5084607;28;20025;-84
2021/05/06 10:26:18;;;;;;;14.32;8.18;;;13.90;55.50;;;;;;5078327;28;20474;-85
2021/05/06 10:28:45;;;;;;;13.05;9.80;;;14.10;57.90;;;;;;5095927;28;20059;-83
2021/05/06 10:31:11;;;;;;;10.55;6.70;;;14.20;56.60;;;;;;5106135;28;20465;-85
2021/05/06 10:33:41;;;;;;;11.40;8.73;;;14.40;57.80;;;;;;5113324;28;20020;-85
2021/05/06 10:36:09;;;;;;;11.65;8.93;;;14.40;56.50;;;;;;5095653;28;20040;-83
2021/05/06 10:38:39;;;;;;;11.90;8.48;;;14.50;52.50;;;;;;5097615;28;20076;-84
2021/05/06 10:41:29;;;;;;;14.60;9.32;;;14.70;51.30;;;;;;5096399;28;20427;-85
2021/05/06 10:43:56;;;;;;;13.70;10.05;;;15.10;50.80;;;;;;5085001;28;20436;-85
2021/05/06 10:46:42;;;;;;;11.15;8.05;;;15.20;48.80;;;;;;5094830;28;20024;-86
2021/05/06 10:49:08;;;;;;;11.43;7.38;;;14.90;49.70;;;;;;5096893;28;20028;-85
2021/05/06 10:51:43;;;;;;;10.73;5.80;;;14.50;48.90;;;;;;5099648;28;20128;-86
2021/05/06 10:54:37;;;;;;;9.80;7.38;;;14.50;52.40;;;;;;5104445;28;20008;-85
2021/05/06 10:57:26;;;;;;;11.00;6.70;;;15.00;53.60;;;;;;5116929;28;20012;-85
2021/05/06 10:59:52;;;;;;;10.27;6.40;;;15.40;48.50;;;;;;5100499;28;20019;-85
2021/05/06 11:02:34;;;;;;;8.95;6.70;;;15.50;48.40;;;;;;5131258;28;20110;-86
2021/05/06 11:05:23;;;;;;;10.45;6.32;;;15.50;46.20;;;;;;5104368;28;20136;-87
2021/05/06 11:08:04;;;;;;;12.77;7.27;;;15.20;51.90;;;;;;5098204;28;20497;-86
2021/05/06 11:10:46;;;;;;;9.23;6.70;;;15.20;54.00;;;;;;5096573;28;20027;-85
2021/05/06 11:13:12;;;;;;;11.27;7.03;;;14.70;51.50;;;;;;5096084;28;20389;-86
2021/05/06 11:15:39;;;;;;;10.88;7.22;;;14.40;53.90;;;;;;5094880;28;20032;-87
2021/05/06 11:18:07;;;;;;;9.90;7.45;;;14.00;56.10;;;;;;5112036;28;20044;-86
2021/05/06 11:20:34;;;;;;;8.38;6.85;;;13.60;56.10;;;;;;5097877;28;20055;-86
2021/05/06 11:23:01;;;;;;;8.02;5.30;;;13.40;57.20;;;;;;5095486;28;20055;-86
2021/05/06 11:25:41;;;;;;;8.95;5.50;;;13.40;59.70;;;;;;5096760;28;20087;-87
2021/05/06 11:28:19;;;;;;;8.07;5.60;;;13.60;58.20;;;;;;5107684;28;20035;-86
2021/05/06 11:30:49;;;;;;;9.00;5.90;;;13.70;57.10;;;;;;5116205;28;20048;-86
2021/05/06 11:36:18;;;;;;;6.40;4.03;;;13.90;56.50;;;;;;5116118;28;20050;-86
2021/05/06 11:38:53;;;;;;;8.48;5.50;;;14.00;57.70;;;;;;5099046;28;20412;-85
2021/05/06 11:41:27;;;;;;;6.68;3.83;;;14.20;53.70;;;;;;5099109;28;20044;-85
2021/05/06 11:44:01;;;;;;;6.85;4.25;;;14.70;57.10;;;;;;5095329;28;20020;-86
2021/05/06 11:46:28;;;;;;;5.35;3.25;;;15.00;54.70;;;;;;5094964;28;20036;-85
2021/05/06 11:49:06;;;;;;;11.52;7.80;;;15.10;56.90;;;;;;5094647;28;20031;-87
2021/05/06 11:51:46;;;;;;;9.60;6.95;;;15.20;48.50;;;;;;5096970;28;20028;-87
2021/05/06 11:54:15;;;;;;;10.23;6.28;;;15.30;52.80;;;;;;5097852;28;20038;-87
2021/05/06 11:56:43;;;;;;;8.55;5.45;;;15.20;53.40;;;;;;5095172;28;20024;-86
2021/05/06 11:59:17;;;;;;;11.32;6.65;;;15.40;55.70;;;;;;5098493;28;20077;-87
2021/05/06 12:01:43;;;;;;;9.75;7.38;;;15.60;50.80;;;;;;5099750;28;20465;-87
2021/05/06 12:04:52;;;;;;;6.43;4.50;;;15.70;44.70;;;;;;5116267;28;20027;-86
2021/05/06 12:07:20;;;;;;;10.68;8.15;;;15.70;51.10;;;;;;5096390;28;20040;-87
2021/05/06 12:09:47;;;;;;;12.00;7.05;;;16.00;43.10;;;;;;5087145;28;20029;-86
2021/05/06 12:12:23;;;;;;;13.10;7.25;;;16.10;44.90;;;;;;5092182;28;20063;-86
2021/05/06 12:14:49;;;;;;;8.35;6.53;;;16.20;47.20;;;;;;5075010;28;20021;-87
2021/05/06 12:17:19;;;;;;;9.18;7.05;;;16.40;47.50;;;;;;5058939;28;20021;-88
2021/05/06 12:19:48;;;;;;;9.80;6.15;;;16.50;46.30;;;;;;5073722;28;20021;-87
2021/05/06 12:22:16;;;;;;;9.15;6.60;;;16.60;46.40;;;;;;5077575;28;20086;-85
2021/05/06 12:24:49;;;;;;;8.15;5.35;;;16.50;45.30;;;;;;5078124;28;20031;-87
2021/05/06 12:27:29;;;;;;;7.07;3.83;;;16.40;48.80;;;;;;5084853;28;20036;-87
2021/05/06 12:29:58;;;;;;;5.07;2.30;;;16.00;54.20;;;;;;5099497;28;20474;-86
2021/05/06 12:32:26;;;;;;;7.50;4.40;;;15.50;59.40;;;;;;5099148;28;20120;-87
2021/05/06 12:34:54;;;;;;;13.60;6.28;;;15.10;58.80;;;;;;5099051;28;20266;-84
2021/05/06 12:37:27;;;;;;;10.07;4.82;;;14.60;58.00;;;;;;5100628;28;20016;-85
2021/05/06 12:39:53;;;;;;;10.90;5.60;;;13.90;56.60;;;;;;5101224;28;20093;-86
2021/05/06 12:42:34;;;;;;;7.82;4.63;;;13.40;60.70;;;;;;5122279;28;20079;-86
2021/05/06 12:45:00;;;;;;;;;;;13.00;56.30;;;;;;5113558;28;20056;-86
2021/05/06 12:47:27;;;;;;;8.18;4.05;;;12.70;59.00;;;;;;5112841;28;19934;-84
2021/05/06 12:50:12;;;;;;;5.15;3.40;;;12.50;59.10;;;;;;5102073;28;20448;-85
2021/05/06 12:53:09;;;;;;;5.20;3.83;;;12.40;67.60;;;;;;5105631;28;20027;-85
2021/05/06 12:55:39;;;;;;;7.25;4.47;;;12.40;62.70;;;;;;5117395;28;20038;-84
2021/05/06 12:58:13;;;;;;;6.43;4.28;;;12.60;62.00;;;;;;5116383;28;20012;-85
2021/05/06 13:00:43;;;;;;;6.50;4.70;;;12.80;62.30;;;;;;5116057;28;20088;-85
2021/05/06 13:03:10;;;;;;;;;;;12.70;59.80;;;;;;5111643;28;20031;-84
2021/05/06 13:05:38;;;;;;;10.52;6.97;;;12.70;59.60;;;;;;5112737;28;19900;-85
2021/05/06 13:08:04;;;;;;;7.90;4.50;;;12.70;64.70;;;;;;5097563;28;20023;-85
2021/05/06 13:10:46;;;;;;;6.88;4.55;;;12.90;65.10;;;;;;5097276;28;20106;-85
2021/05/06 13:13:33;;;;;;;6.45;4.10;;;13.00;62.90;;;;;;5096748;28;20016;-84
2021/05/06 13:15:59;;;;;;;4.88;2.22;;;13.20;62.80;;;;;;5099234;28;20039;-86
2021/05/06 13:18:24;;;;;;;3.95;2.30;;;13.40;66.70;;;;;;5100138;28;20087;-84
2021/05/06 13:20:51;;;;;;;9.30;7.28;;;13.60;66.00;;;;;;5118504;28;20185;-85
2021/05/06 13:23:30;;;;;;;8.60;6.30;;;13.70;61.60;;;;;;5128925;28;20046;-85
2021/05/06 13:25:57;;;;;;;5.93;3.33;;;13.80;60.10;;;;;;5118423;28;20032;-82
2021/05/06 13:28:31;;;;;;;4.22;2.30;;;13.80;63.00;;;;;;5080946;28;20052;-83
2021/05/06 13:31:05;;;;;;;10.65;7.10;;;13.90;65.00;;;;;;5086514;28;20033;-85
2021/05/06 13:33:32;;;;;;;14.70;10.75;;;14.10;61.30;;;;;;5077823;28;20025;-86
2021/05/06 13:36:09;;;;;;;6.13;3.55;;;14.10;59.60;;;;;;5076811;28;20028;-85
2021/05/06 13:38:57;;;;;;;9.65;6.38;;;14.00;64.00;;;;;;5077233;28;20047;-85
2021/05/06 13:41:28;;;;;;;9.88;7.68;;;14.00;55.80;;;;;;5078455;28;20020;-84
2021/05/06 13:43:55;;;;;;;8.90;6.53;;;14.10;55.50;;;;;;5078788;28;20024;-86
2021/05/06 13:46:22;;;;;;;8.95;6.35;;;14.00;54.80;;;;;;5078744;28;20102;-86
2021/05/06 13:48:51;;;;;;;9.63;7.72;;;13.90;54.80;;;;;;5080945;28;20017;-85
2021/05/06 13:51:18;;;;;;;9.07;7.18;;;13.90;60.10;;;;;;5080241;28;20048;-84
2021/05/06 13:53:45;;;;;;;8.25;6.35;;;13.80;55.60;;;;;;5076879;28;20462;-86
2021/05/06 13:56:11;;;;;;;8.25;5.90;;;13.80;56.00;;;;;;5073157;28;20163;-84
2021/05/06 13:58:38;;;;;;;6.65;4.00;;;13.80;55.80;;;;;;5078329;28;20040;-83
2021/05/06 14:01:05;;;;;;;7.97;6.00;;;13.60;56.20;;;;;;5088393;28;20017;-86
2021/05/06 14:03:31;;;;;;;9.60;6.28;;;13.50;54.60;;;;;;5078377;28;20017;-85
2021/05/06 14:05:59;;;;;;;8.38;5.80;;;13.40;53.80;;;;;;5077793;28;20059;-85
2021/05/06 14:08:25;;;;;;;6.85;5.00;;;13.30;53.10;;;;;;5078090;28;20024;-85
2021/05/06 14:10:51;;;;;;;7.68;5.57;;;13.20;53.40;;;;;;5076259;28;20548;-84
2021/05/06 14:13:19;;;;;;;8.15;5.78;;;13.20;52.20;;;;;;5076650;28;20029;-86
2021/05/06 14:15:46;;;;;;;10.25;6.43;;;13.10;53.40;;;;;;5076804;28;20025;-85
2021/05/06 14:18:12;;;;;;;11.25;6.80;;;13.10;54.40;;;;;;5076838;28;20093;-85
2021/05/06 14:20:42;;;;;;;11.23;7.07;;;13.10;53.50;;;;;;5077185;28;20069;-84
2021/05/06 14:23:10;;;;;;;6.85;3.53;;;13.10;53.20;;;;;;5075034;28;20040;-86
2021/05/06 14:25:36;;;;;;;10.85;6.65;;;13.00;58.10;;;;;;5076307;28;20082;-85
2021/05/06 14:28:03;;;;;;;8.15;5.90;;;13.00;54.10;;;;;;5087568;28;20143;-85
2021/05/06 14:30:29;;;;;;;10.70;7.20;;;13.00;53.60;;;;;;5095492;28;20020;-85
2021/05/06 14:32:58;;;;;;;11.68;8.23;;;12.90;54.00;;;;;;5098309;28;20081;-86
2021/05/06 14:35:27;;;;;;;10.48;7.30;;;12.90;52.20;;;;;;5102507;28;20075;-84
2021/05/06 14:37:53;;;;;;;11.07;8.38;;;12.80;51.40;;;;;;5115696;28;20092;-85
2021/05/06 14:40:18;;;;;;;9.68;6.28;;;12.90;52.70;;;;;;5098194;28;20052;-86
2021/05/06 14:42:44;;;;;;;9.02;6.63;;;13.00;52.40;;;;;;5114355;28;20101;-86
2021/05/06 14:45:11;;;;;;;8.13;5.90;;;13.00;51.90;;;;;;5115309;28;20028;-84
2021/05/06 14:47:40;;;;;;;10.02;6.50;;;13.10;52.90;;;;;;5098501;28;20019;-84
2021/05/06 14:50:12;;;;;;;9.63;6.68;;;13.10;53.00;;;;;;5103520;28;20031;-85
2021/05/06 14:52:39;;;;;;;9.57;6.55;;;13.10;52.20;;;;;;5113415;28;20023;-85
2021/05/06 14:55:07;;;;;;;8.82;6.47;;;13.10;53.60;;;;;;5115876;28;20068;-85
2021/05/06 14:57:33;;;;;;;8.98;6.78;;;13.10;53.10;;;;;;5116826;28;20018;-86
2021/05/06 14:59:59;;;;;;;7.68;5.68;;;13.20;52.00;;;;;;5112428;28;20059;-85
2021/05/06 15:02:24;;;;;;;9.52;7.25;;;13.40;52.00;;;;;;5115192;28;20016;-81
2021/05/06 15:04:53;;;;;;;9.32;6.68;;;13.40;51.40;;;;;;5110827;28;20039;-80
2021/05/06 15:07:21;;;;;;;9.70;7.43;;;13.30;50.80;;;;;;5110137;28;20035;-79
2021/05/06 15:09:47;;;;;;;10.85;7.82;;;13.20;51.00;;;;;;5111394;28;20381;-78
2021/05/06 15:12:12;;;;;;;12.85;8.18;;;13.20;50.90;;;;;;5120915;28;20040;-80
2021/05/06 15:14:39;;;;;;;11.10;6.97;;;13.10;51.30;;;;;;5113221;28;20024;-78
2021/05/06 15:17:05;;;;;;;10.30;7.32;;;13.20;50.90;;;;;;5112138;28;20092;-79
2021/05/06 15:19:30;;;;;;;10.80;7.55;;;13.20;52.10;;;;;;5123601;28;20016;-81
2021/05/06 15:21:56;;;;;;;9.70;7.30;;;13.30;51.10;;;;;;5130319;28;20024;-81
2021/05/06 15:24:22;;;;;;;10.18;7.53;;;13.20;50.50;;;;;;5132084;28;20027;-79
2021/05/06 15:26:47;;;;;;;12.32;7.88;;;13.20;51.50;;;;;;5112529;28;20051;-81
2021/05/06 15:29:13;;;;;;;5.47;3.22;;;13.30;51.20;;;;;;5092476;28;20021;-83
2021/05/06 15:31:39;;;;;;;11.18;5.45;;;13.40;57.40;;;;;;5085866;28;20028;-80
2021/05/06 15:34:05;;;;;;;18.38;7.82;;;13.30;54.90;;;;;;5089859;28;20023;-82
2021/05/06 15:36:31;;;;;;;30.05;13.77;;;13.30;57.30;;;;;;5074902;28;20078;-82
2021/05/06 15:38:58;;;;;;;12.25;7.78;;;13.30;54.40;;;;;;5087749;28;20025;-81
2021/05/06 15:41:24;;;;;;;9.65;7.50;;;13.40;52.10;;;;;;5081900;28;20027;-82
2021/05/06 15:43:53;;;;;;;9.25;3.83;;;13.50;51.80;;;;;;5077647;28;20024;-80
2021/05/06 15:46:19;;;;;;;11.00;7.57;;;13.70;57.30;;;;;;5059060;28;20445;-82
2021/05/06 15:48:48;;;;;;;8.35;5.65;;;13.80;50.70;;;;;;5069697;28;20001;-82
2021/05/06 15:51:13;;;;;;;8.20;6.70;;;13.90;52.90;;;;;;5062444;28;20056;-82
2021/05/06 15:53:39;;;;;;;11.48;7.43;;;13.80;50.80;;;;;;5059208;28;20028;-81
2021/05/06 15:56:05;;;;;;;10.30;7.28;;;13.70;50.10;;;;;;5057919;28;20033;-82
2021/05/06 15:58:34;;;;;;;11.75;7.72;;;13.80;51.10;;;;;;5057871;28;20051;-82
2021/05/06 16:01:00;;;;;;;8.93;7.05;;;13.80;50.10;;;;;;5057640;28;20028;-83
2021/05/06 16:03:29;;;;;;;8.73;6.53;;;13.70;50.60;;;;;;5057466;28;20096;-81
2021/05/06 16:05:55;;;;;;;8.10;6.40;;;13.60;50.80;;;;;;5056617;28;20386;-82
2021/05/06 16:08:23;;;;;;;11.20;6.43;;;13.50;52.60;;;;;;5056197;28;20025;-81
2021/05/06 16:10:50;;;;;;;9.13;6.65;;;13.50;51.40;;;;;;5056859;28;20082;-82
2021/05/06 16:13:19;;;;;;;8.05;6.10;;;13.40;51.60;;;;;;5056620;28;20017;-84